createdAt,value
2022-12-25T00:01:45.375Z,101109.38
2022-12-25T00:04:19.210Z,101110.22
2022-12-25T00:06:52.032Z,101098.84
2022-12-25T00:09:22.574Z,101102.34
2022-12-25T00:11:58.310Z,101106.69
2022-12-25T00:14:35.022Z,101103.16
2022-12-25T00:17:10.673Z,101101.47
2022-12-25T00:19:42.755Z,101110.22
2022-12-25T00:22:24.488Z,101097.09
2022-12-25T00:24:56.252Z,101096.19
2022-12-25T00:27:34.873Z,101089.22
2022-12-25T00:30:07.046Z,101083.97
2022-12-25T00:32:46.403Z,101088.31
2022-12-25T00:35:32.478Z,101098.00
2022-12-25T00:38:10.842Z,101099.78
2022-12-25T00:40:51.475Z,101104.13
2022-12-25T00:43:24.275Z,101119.94
2022-12-25T00:46:02.139Z,101119.06
2022-12-25T00:48:37.726Z,101119.06
2022-12-25T00:54:44.868Z,101136.56
2022-12-25T00:57:20.500Z,101147.09
2022-12-25T01:00:17.793Z,101147.09
2022-12-25T01:05:36.948Z,101141.00
2022-12-25T01:14:48.566Z,101140.06
2022-12-25T01:17:31.399Z,101129.53
2022-12-25T01:20:09.399Z,101134.78
2022-12-25T01:22:51.627Z,101143.56
2022-12-25T01:25:34.195Z,101131.19
2022-12-25T01:28:05.171Z,101131.25
2022-12-25T01:30:41.964Z,101131.28
2022-12-25T01:33:21.443Z,101127.78
2022-12-25T01:35:55.311Z,101134.78
2022-12-25T01:38:24.821Z,101134.75
2022-12-25T01:40:57.353Z,101140.06
2022-12-25T01:43:28.168Z,101133.94
2022-12-25T01:46:06.411Z,101143.56
2022-12-25T01:48:46.521Z,101136.47
2022-12-25T01:51:40.276Z,101144.38
2022-12-25T01:54:32.468Z,101146.13
2022-12-25T01:57:18.480Z,101125.97
2022-12-25T02:00:11.831Z,101124.22
2022-12-25T02:02:56.529Z,101138.28
2022-12-25T02:05:39.060Z,101148.84
2022-12-25T02:08:30.054Z,101144.44
2022-12-25T02:11:39.049Z,101154.06
2022-12-25T02:14:25.396Z,101150.59
2022-12-25T02:17:09.226Z,101155.81
2022-12-25T02:20:17.503Z,101163.69
2022-12-25T02:23:24.903Z,101156.69
2022-12-25T02:26:24.596Z,101146.16
2022-12-25T02:29:22.953Z,101141.78
2022-12-25T02:32:22.265Z,101149.66
2022-12-25T02:35:00.102Z,101161.16
2022-12-25T02:37:43.894Z,101157.69
2022-12-25T02:40:27.708Z,101164.75
2022-12-25T02:43:29.160Z,101157.75
2022-12-25T02:46:37.585Z,101143.69
2022-12-25T02:49:36.989Z,101138.41
2022-12-25T02:52:34.569Z,101145.44
2022-12-25T02:59:02.851Z,101134.88
2022-12-25T03:12:59.159Z,101134.00
2022-12-25T03:15:51.433Z,101130.50
2022-12-25T03:18:38.048Z,101134.88
2022-12-25T03:21:35.750Z,101123.50
2022-12-25T03:24:22.848Z,101118.22
2022-12-25T03:27:08.064Z,101124.31
2022-12-25T03:30:29.200Z,101128.66
2022-12-25T03:40:05.445Z,101126.97
2022-12-25T03:53:19.879Z,101148.03
2022-12-25T04:05:48.871Z,101144.50
2022-12-25T04:08:35.170Z,101138.38
2022-12-25T04:11:28.123Z,101135.75
2022-12-25T04:14:17.467Z,101129.63
2022-12-25T04:17:04.785Z,101130.47
2022-12-25T04:19:51.155Z,101131.34
2022-12-25T04:22:38.621Z,101136.63
2022-12-25T04:25:25.347Z,101136.63
2022-12-25T04:28:13.392Z,101135.75
2022-12-25T04:31:09.824Z,101130.50
2022-12-25T04:34:00.372Z,101125.22
2022-12-25T04:36:36.805Z,101122.56
2022-12-25T04:45:46.171Z,101111.16
2022-12-25T04:48:21.965Z,101106.81
2022-12-25T04:50:53.821Z,101107.66
2022-12-25T04:53:27.523Z,101102.38
2022-12-25T04:56:10.706Z,101096.25
2022-12-25T04:58:41.827Z,101092.75
2022-12-25T05:01:14.099Z,101105.03
2022-12-25T05:03:44.478Z,101112.94
2022-12-25T05:09:04.951Z,101098.88
2022-12-25T05:11:39.073Z,101088.34
2022-12-25T05:14:18.897Z,101098.00
2022-12-25T05:16:55.183Z,101090.94
2022-12-25T05:19:26.095Z,101083.94
2022-12-25T05:21:57.163Z,101079.53
2022-12-25T05:24:28.425Z,101081.28
2022-12-25T05:27:00.264Z,101078.66
2022-12-25T05:29:29.747Z,101082.13
2022-12-25T05:32:00.183Z,101078.59
2022-12-25T05:34:33.305Z,101070.69
2022-12-25T05:37:02.840Z,101076.84
2022-12-25T05:39:33.897Z,101070.69
2022-12-25T05:42:06.631Z,101071.56
2022-12-25T05:44:36.955Z,101064.53
2022-12-25T05:47:07.832Z,101061.88
2022-12-25T05:49:41.160Z,101063.66
2022-12-25T05:52:11.576Z,101070.63
2022-12-25T05:54:42.272Z,101075.00
2022-12-25T05:57:15.262Z,101065.38
2022-12-25T05:59:44.524Z,101068.00
2022-12-25T06:02:15.370Z,101055.72
2022-12-25T06:04:47.751Z,101061.84
2022-12-25T06:07:20.351Z,101059.22
2022-12-25T06:09:50.938Z,101052.19
2022-12-25T06:12:24.200Z,101066.31
2022-12-25T06:14:53.494Z,101060.09
2022-12-25T06:17:23.318Z,101051.28
2022-12-25T06:19:55.994Z,101053.94
2022-12-25T06:22:27.423Z,101063.56
2022-12-25T06:24:58.787Z,101063.53
2022-12-25T06:27:34.733Z,101057.44
2022-12-25T06:30:07.339Z,101061.78
2022-12-25T06:32:39.777Z,101055.66
2022-12-25T06:35:21.035Z,101060.16
2022-12-25T06:38:04.314Z,101066.34
2022-12-25T06:40:41.622Z,101058.34
2022-12-25T06:43:26.065Z,101066.25
2022-12-25T06:46:01.339Z,101057.47
2022-12-25T06:48:57.748Z,101051.34
2022-12-25T06:51:45.051Z,101045.13
2022-12-25T06:54:35.055Z,101034.53
2022-12-25T06:57:06.190Z,101027.50
2022-12-25T06:59:38.842Z,101023.13
2022-12-25T07:02:10.281Z,101021.34
2022-12-25T07:04:48.348Z,101038.09
2022-12-25T07:07:25.534Z,101031.91
2022-12-25T07:09:57.388Z,101043.38
2022-12-25T07:12:29.555Z,101045.09
2022-12-25T07:15:03.401Z,101038.03
2022-12-25T07:17:32.544Z,101043.31
2022-12-25T07:20:05.848Z,101052.13
2022-12-25T07:25:24.829Z,101044.19
2022-12-25T07:31:21.434Z,101059.25
2022-12-25T07:33:57.706Z,101057.44
2022-12-25T07:36:27.767Z,101048.66
2022-12-25T07:38:58.407Z,101030.16
2022-12-25T07:41:27.085Z,101037.19
2022-12-25T07:44:15.294Z,101029.28
2022-12-25T07:46:46.530Z,101034.56
2022-12-25T07:49:16.383Z,101022.22
2022-12-25T07:51:53.690Z,101024.84
2022-12-25T07:54:22.991Z,101023.97
2022-12-25T07:56:55.453Z,101016.84
2022-12-25T07:59:25.388Z,101004.53
2022-12-25T08:01:57.111Z,100994.00
2022-12-25T08:04:25.994Z,100976.44
2022-12-25T08:06:55.098Z,100979.09
2022-12-25T08:09:26.946Z,100975.53
2022-12-25T08:12:00.366Z,100979.00
2022-12-25T08:14:34.906Z,100983.41
2022-12-25T08:17:07.150Z,100974.56
2022-12-25T08:19:38.494Z,100986.84
2022-12-25T08:22:07.091Z,100988.56
2022-12-25T08:24:36.038Z,100988.53
2022-12-25T08:27:06.287Z,100993.78
2022-12-25T08:29:37.242Z,100997.28
2022-12-25T08:32:10.315Z,100998.00
2022-12-25T08:34:39.499Z,101005.81
2022-12-25T08:37:10.785Z,101006.56
2022-12-25T08:39:42.979Z,101010.22
2022-12-25T08:42:15.804Z,101005.53
2022-12-25T08:44:45.506Z,101007.41
2022-12-25T08:47:22.451Z,101016.22
2022-12-25T08:49:53.080Z,101023.31
2022-12-25T08:52:21.907Z,101017.16
2022-12-25T08:54:52.432Z,101024.22
2022-12-25T08:57:22.721Z,101018.03
2022-12-25T08:59:53.600Z,101035.66
2022-12-25T09:02:29.666Z,101028.63
2022-12-25T09:05:01.044Z,101018.03
2022-12-25T09:07:30.822Z,101010.94
2022-12-25T09:10:11.923Z,101008.38
2022-12-25T09:12:48.291Z,100996.84
2022-12-25T09:15:19.145Z,100992.47
2022-12-25T09:17:53.398Z,100982.53
2022-12-25T09:20:27.893Z,100981.59
2022-12-25T09:22:57.212Z,100974.50
2022-12-25T09:25:29.212Z,100978.75
2022-12-25T09:28:10.959Z,100980.44
2022-12-25T09:30:43.349Z,100997.19
2022-12-25T09:33:23.420Z,101014.00
2022-12-25T09:36:00.751Z,101016.63
2022-12-25T09:38:34.653Z,100998.25
2022-12-25T09:41:22.854Z,101009.34
2022-12-25T09:44:05.255Z,101008.28
2022-12-25T09:46:45.396Z,100994.34
2022-12-25T09:49:36.545Z,100989.72
2022-12-25T09:52:11.828Z,100978.38
2022-12-25T09:54:50.529Z,100975.63
2022-12-25T09:57:23.406Z,100994.00
2022-12-25T09:59:59.489Z,100993.97
2022-12-25T10:03:05.445Z,100990.53
2022-12-25T10:06:09.370Z,100987.34
2022-12-25T10:09:03.598Z,100982.78
2022-12-25T10:11:59.314Z,100958.13
2022-12-25T10:14:40.222Z,100936.06
2022-12-25T10:17:27.030Z,100936.06
2022-12-25T10:20:08.073Z,100927.09
2022-12-25T10:22:42.558Z,100922.72
2022-12-25T10:25:22.887Z,100918.25
2022-12-25T10:31:04.090Z,100911.94
2022-12-25T10:33:34.369Z,100908.03
2022-12-25T10:36:04.648Z,100890.22
2022-12-25T10:38:34.216Z,100902.31
2022-12-25T10:41:19.898Z,100905.19
2022-12-25T10:43:52.163Z,100905.28
2022-12-25T10:46:23.863Z,100893.66
2022-12-25T10:48:55.346Z,100886.75
2022-12-25T10:51:32.638Z,100892.72
2022-12-25T10:54:03.975Z,100899.81
2022-12-25T10:56:34.169Z,100912.06
2022-12-25T10:59:07.631Z,100919.75
2022-12-25T11:01:51.103Z,100918.22
2022-12-25T11:04:34.985Z,100931.88
2022-12-25T11:07:08.542Z,100923.00
2022-12-25T11:09:37.157Z,100917.81
2022-12-25T11:12:08.352Z,100929.16
2022-12-25T11:14:39.284Z,100931.53
2022-12-25T11:17:13.896Z,100911.25
2022-12-25T11:19:56.310Z,100901.94
2022-12-25T11:22:27.039Z,100892.84
2022-12-25T11:25:00.772Z,100892.16
2022-12-25T11:27:35.738Z,100885.06
2022-12-25T11:30:14.282Z,100893.50
2022-12-25T11:33:00.626Z,100887.19
2022-12-25T11:35:35.351Z,100882.81
2022-12-25T11:38:06.123Z,100886.75
2022-12-25T11:40:49.239Z,100893.44
2022-12-25T11:43:24.552Z,100880.72
2022-12-25T11:45:59.820Z,100885.56
2022-12-25T11:48:39.527Z,100867.31
2022-12-25T11:51:12.030Z,100867.53
2022-12-25T11:53:48.744Z,100861.47
2022-12-25T11:56:20.074Z,100858.53
2022-12-25T11:58:52.804Z,100856.00
2022-12-25T12:01:39.889Z,100839.19
2022-12-25T12:04:25.925Z,100832.28
2022-12-25T12:07:06.681Z,100822.78
2022-12-25T12:09:44.799Z,100821.94
2022-12-25T12:12:19.451Z,100827.19
2022-12-25T12:14:56.964Z,100822.63
2022-12-25T12:17:24.964Z,100810.53
2022-12-25T12:19:52.793Z,100802.78
2022-12-25T12:22:24.248Z,100797.47
2022-12-25T12:24:57.177Z,100799.13
2022-12-25T12:27:28.939Z,100788.66
2022-12-25T12:30:01.099Z,100793.97
2022-12-25T12:32:39.167Z,100794.09
2022-12-25T12:35:10.901Z,100796.69
2022-12-25T12:37:41.850Z,100792.50
2022-12-25T12:40:25.419Z,100778.31
2022-12-25T12:42:53.965Z,100788.97
2022-12-25T12:45:27.200Z,100770.50
2022-12-25T12:47:55.242Z,100770.41
2022-12-25T12:50:31.567Z,100768.50
2022-12-25T12:53:01.066Z,100755.31
2022-12-25T12:55:30.809Z,100746.41
2022-12-25T12:58:00.828Z,100750.78
2022-12-25T13:00:41.688Z,100742.78
2022-12-25T13:03:37.549Z,100737.38
2022-12-25T13:06:14.180Z,100728.59
2022-12-25T13:08:58.446Z,100734.06
2022-12-25T13:11:28.624Z,100735.09
2022-12-25T13:14:01.659Z,100738.63
2022-12-25T13:16:35.312Z,100741.34
2022-12-25T13:19:07.036Z,100738.94
2022-12-25T13:21:36.128Z,100744.94
2022-12-25T13:24:08.910Z,100748.66
2022-12-25T13:26:38.891Z,100739.13
2022-12-25T13:29:11.431Z,100740.06
2022-12-25T13:31:41.843Z,100732.25
2022-12-25T13:34:23.363Z,100730.53
2022-12-25T13:36:51.363Z,100720.81
2022-12-25T13:39:20.000Z,100718.25
2022-12-25T13:42:10.068Z,100712.06
2022-12-25T13:44:45.522Z,100703.44
2022-12-25T13:47:24.715Z,100708.59
2022-12-25T13:49:54.124Z,100693.63
2022-12-25T13:52:25.723Z,100687.38
2022-12-25T13:54:58.076Z,100684.72
2022-12-25T13:57:30.331Z,100678.66
2022-12-25T13:59:58.924Z,100682.09
2022-12-25T14:02:35.481Z,100680.25
2022-12-25T14:05:03.782Z,100675.00
2022-12-25T14:07:31.832Z,100669.84
2022-12-25T14:10:04.573Z,100661.94
2022-12-25T14:12:33.931Z,100661.91
2022-12-25T14:15:02.194Z,100653.94
2022-12-25T14:17:31.497Z,100635.53
2022-12-25T14:20:07.918Z,100630.25
2022-12-25T14:22:38.569Z,100620.56
2022-12-25T14:25:19.559Z,100611.75
2022-12-25T14:27:57.091Z,100595.69
2022-12-25T14:30:30.879Z,100600.25
2022-12-25T14:33:02.701Z,100607.34
2022-12-25T14:35:31.727Z,100615.13
2022-12-25T14:38:01.168Z,100612.19
2022-12-25T14:40:31.627Z,100619.16
2022-12-25T14:43:02.498Z,100621.69
2022-12-25T14:45:34.233Z,100628.78
2022-12-25T14:48:25.259Z,100631.56
2022-12-25T14:51:00.253Z,100619.22
2022-12-25T14:53:37.401Z,100615.03
2022-12-25T14:56:07.166Z,100613.38
2022-12-25T14:58:42.615Z,100615.19
2022-12-25T15:01:22.639Z,100612.69
2022-12-25T15:03:52.433Z,100607.50
2022-12-25T15:06:22.575Z,100601.38
2022-12-25T15:08:58.666Z,100605.72
2022-12-25T15:11:26.985Z,100603.00
2022-12-25T15:13:55.044Z,100601.22
2022-12-25T15:16:25.771Z,100597.75
2022-12-25T15:18:55.973Z,100591.59
2022-12-25T15:21:27.251Z,100592.50
2022-12-25T15:23:56.198Z,100595.09
2022-12-25T15:26:25.156Z,100594.28
2022-12-25T15:28:54.704Z,100597.78
2022-12-25T15:31:26.176Z,100590.69
2022-12-25T15:33:59.377Z,100586.31
2022-12-25T15:36:28.291Z,100587.28
2022-12-25T15:38:56.770Z,100590.81
2022-12-25T15:41:43.785Z,100588.97
2022-12-25T15:44:13.489Z,100581.75
2022-12-25T15:46:42.115Z,100569.44
2022-12-25T15:49:12.218Z,100571.25
2022-12-25T15:51:40.890Z,100567.56
2022-12-25T15:54:15.258Z,100561.47
2022-12-25T15:56:45.659Z,100562.28
2022-12-25T15:59:15.900Z,100553.41
2022-12-25T16:01:48.052Z,100552.75
2022-12-25T16:04:18.033Z,100549.25
2022-12-25T16:06:46.271Z,100552.78
2022-12-25T16:09:16.342Z,100551.97
2022-12-25T16:11:44.771Z,100550.25
2022-12-25T16:14:12.915Z,100552.91
2022-12-25T16:16:41.137Z,100544.09
2022-12-25T16:19:09.051Z,100548.59
2022-12-25T16:21:42.302Z,100539.78
2022-12-25T16:24:10.757Z,100534.41
2022-12-25T16:26:38.661Z,100536.16
2022-12-25T16:29:08.154Z,100529.09
2022-12-25T16:31:36.642Z,100530.94
2022-12-25T16:34:04.679Z,100530.94
2022-12-25T16:36:32.577Z,100525.72
2022-12-25T16:39:01.788Z,100519.63
2022-12-25T16:41:29.759Z,100519.56
2022-12-25T16:43:57.504Z,100515.09
2022-12-25T16:46:25.302Z,100505.41
2022-12-25T16:48:53.024Z,100515.09
2022-12-25T16:51:22.057Z,100504.50
2022-12-25T16:53:49.979Z,100496.53
2022-12-25T16:56:25.302Z,100499.91
2022-12-25T16:58:53.293Z,100493.53
2022-12-25T17:01:23.122Z,100484.78
2022-12-25T17:03:52.404Z,100479.59
2022-12-25T17:06:22.987Z,100478.16
2022-12-25T17:08:52.058Z,100474.31
2022-12-25T17:11:26.185Z,100465.50
2022-12-25T17:13:54.487Z,100459.28
2022-12-25T17:16:24.782Z,100465.31
2022-12-25T17:18:55.268Z,100456.47
2022-12-25T17:21:23.175Z,100460.81
2022-12-25T17:23:55.322Z,100458.28
2022-12-25T17:26:27.795Z,100450.38
2022-12-25T17:28:56.361Z,100455.56
2022-12-25T17:31:24.654Z,100458.13
2022-12-25T17:33:52.639Z,100449.28
2022-12-25T17:36:22.275Z,100440.47
2022-12-25T17:38:54.942Z,100426.34
2022-12-25T17:41:22.982Z,100428.91
2022-12-25T17:43:52.239Z,100414.75
2022-12-25T17:46:22.196Z,100419.16
2022-12-25T17:48:51.136Z,100421.78
2022-12-25T17:51:22.271Z,100411.56
2022-12-25T17:53:52.088Z,100398.38
2022-12-25T17:56:20.812Z,100390.47
2022-12-25T17:58:52.785Z,100391.31
2022-12-25T18:01:21.368Z,100396.47
2022-12-25T18:03:49.987Z,100391.25
2022-12-25T18:06:19.646Z,100390.41
2022-12-25T18:08:48.540Z,100391.34
2022-12-25T18:11:18.956Z,100383.06
2022-12-25T18:13:49.931Z,100381.94
2022-12-25T18:16:21.127Z,100384.88
2022-12-25T18:18:52.221Z,100387.97
2022-12-25T18:21:21.813Z,100389.25
2022-12-25T18:23:50.324Z,100380.53
2022-12-25T18:26:18.820Z,100376.94
2022-12-25T18:28:46.819Z,100375.00
2022-12-25T18:31:21.208Z,100365.22
2022-12-25T18:33:49.721Z,100364.28
2022-12-25T18:36:21.129Z,100358.19
2022-12-25T18:38:48.983Z,100352.69
2022-12-25T18:41:17.252Z,100359.72
2022-12-25T18:43:53.159Z,100354.75
2022-12-25T18:46:26.052Z,100362.66
2022-12-25T18:48:54.934Z,100365.19
2022-12-25T18:51:23.553Z,100356.53
2022-12-25T18:53:52.087Z,100350.66
2022-12-25T18:56:23.621Z,100360.91
2022-12-25T18:58:51.611Z,100351.31
2022-12-25T19:01:22.687Z,100349.47
2022-12-25T19:03:58.672Z,100357.09
2022-12-25T19:06:34.490Z,100349.41
2022-12-25T19:09:09.434Z,100350.78
2022-12-25T19:11:44.019Z,100345.72
2022-12-25T19:14:14.716Z,100342.16
2022-12-25T19:16:45.850Z,100340.50
2022-12-25T19:19:15.992Z,100347.50
2022-12-25T19:21:47.470Z,100345.78
2022-12-25T19:24:15.498Z,100339.38
2022-12-25T19:26:43.931Z,100327.63
2022-12-25T19:29:13.013Z,100322.09
2022-12-25T19:31:41.833Z,100326.56
2022-12-25T19:34:12.727Z,100320.16
2022-12-25T19:36:42.313Z,100316.03
2022-12-25T19:39:12.746Z,100311.41
2022-12-25T19:41:40.824Z,100304.81
2022-12-25T19:44:09.542Z,100297.72
2022-12-25T19:46:40.549Z,100303.31
2022-12-25T19:49:11.174Z,100308.28
2022-12-25T19:51:42.326Z,100304.41
2022-12-25T19:54:14.848Z,100307.09
2022-12-25T19:56:43.443Z,100302.50
2022-12-25T19:59:14.604Z,100297.22
2022-12-25T20:01:43.449Z,100295.50
2022-12-25T20:04:14.788Z,100286.47
2022-12-25T20:06:46.231Z,100302.50
2022-12-25T20:09:20.707Z,100293.66
2022-12-25T20:11:49.550Z,100286.47
2022-12-25T20:14:18.124Z,100291.50
2022-12-25T20:16:46.536Z,100283.72
2022-12-25T20:19:14.915Z,100289.69
2022-12-25T20:21:43.104Z,100289.81
2022-12-25T20:24:11.268Z,100293.75
2022-12-25T20:26:45.334Z,100295.78
2022-12-25T20:29:16.435Z,100302.19
2022-12-25T20:31:44.647Z,100302.13
2022-12-25T20:34:13.129Z,100305.56
2022-12-25T20:36:43.257Z,100303.69
2022-12-25T20:39:13.077Z,100297.22
2022-12-25T20:41:42.709Z,100307.16
2022-12-25T20:44:13.362Z,100308.09
2022-12-25T20:46:41.766Z,100311.50
2022-12-25T20:49:10.029Z,100315.69
2022-12-25T20:51:38.210Z,100318.31
2022-12-25T20:54:07.569Z,100311.25
2022-12-25T20:56:36.357Z,100309.00
2022-12-25T20:59:08.172Z,100327.75
2022-12-25T21:01:36.495Z,100323.31
2022-12-25T21:04:05.152Z,100335.06
2022-12-25T21:06:33.261Z,100329.75
2022-12-25T21:09:01.535Z,100327.97
2022-12-25T21:11:32.006Z,100336.91
2022-12-25T21:14:00.358Z,100337.97
2022-12-25T21:16:32.765Z,100335.72
2022-12-25T21:19:00.987Z,100335.91
2022-12-25T21:21:29.399Z,100349.16
2022-12-25T21:23:58.001Z,100342.75
2022-12-25T21:26:28.049Z,100332.25
2022-12-25T21:29:00.209Z,100335.03
2022-12-25T21:31:30.774Z,100343.84
2022-12-25T21:33:58.229Z,100343.25
2022-12-25T21:36:31.557Z,100349.31
2022-12-25T21:39:01.331Z,100357.13
2022-12-25T21:41:31.849Z,100352.97
2022-12-25T21:44:00.750Z,100351.06
2022-12-25T21:46:30.680Z,100339.72
2022-12-25T21:48:59.764Z,100351.22
2022-12-25T21:51:47.626Z,100340.78
2022-12-25T21:54:16.929Z,100349.50
2022-12-25T21:56:47.214Z,100341.56
2022-12-25T21:59:18.026Z,100337.84
2022-12-25T22:01:48.620Z,100335.06
2022-12-25T22:04:18.175Z,100342.09
2022-12-25T22:07:04.355Z,100339.56
2022-12-25T22:09:36.458Z,100341.06
2022-12-25T22:12:22.555Z,100340.63
2022-12-25T22:14:56.209Z,100331.59
2022-12-25T22:17:45.730Z,100338.38
2022-12-25T22:20:16.458Z,100330.88
2022-12-25T22:22:44.957Z,100334.81
2022-12-25T22:25:14.287Z,100338.00
2022-12-25T22:27:44.108Z,100347.06
2022-12-25T22:30:15.085Z,100353.06
2022-12-25T22:32:44.779Z,100362.63
2022-12-25T22:35:13.116Z,100361.72
2022-12-25T22:37:42.648Z,100361.03
2022-12-25T22:40:13.136Z,100367.22
2022-12-25T22:42:41.920Z,100375.13
2022-12-25T22:45:12.410Z,100377.97
2022-12-25T22:47:42.378Z,100382.44
2022-12-25T22:50:19.062Z,100378.94
2022-12-25T22:52:49.007Z,100382.25
2022-12-25T22:55:20.190Z,100390.38
2022-12-25T22:57:49.367Z,100381.63
2022-12-25T23:00:21.394Z,100388.44
2022-12-25T23:02:50.106Z,100385.94
2022-12-25T23:05:20.119Z,100393.81
2022-12-25T23:07:51.860Z,100387.63
2022-12-25T23:10:19.945Z,100388.19
2022-12-25T23:13:17.155Z,100378.63
2022-12-25T23:15:46.092Z,100364.44
2022-12-25T23:18:46.066Z,100371.38
2022-12-25T23:21:34.557Z,100370.97
2022-12-25T23:24:20.095Z,100385.72
2022-12-25T23:26:48.173Z,100374.94
2022-12-25T23:29:38.980Z,100378.53
2022-12-25T23:32:09.865Z,100382.09
2022-12-25T23:34:40.266Z,100373.03
2022-12-25T23:37:10.200Z,100390.84
2022-12-25T23:39:38.631Z,100388.84
2022-12-25T23:42:06.871Z,100371.72
2022-12-25T23:44:35.252Z,100380.19
2022-12-25T23:47:03.614Z,100389.00
2022-12-25T23:49:32.172Z,100392.59
2022-12-25T23:52:00.146Z,100371.22
2022-12-25T23:54:32.111Z,100378.22
2022-12-25T23:57:00.837Z,100388.84
2022-12-25T23:59:30.390Z,100384.44
